sensor_id;sensor_type;location;lat;lon;timestamp;P1;durP1;ratioP1;P2;durP2;ratioP2
69030;SDS011;56083;48.774;8.942;2023-06-05T00:01:44;8.43;;;2.88;;
69030;SDS011;56083;48.774;8.942;2023-06-05T00:04:09;5.90;;;2.45;;
69030;SDS011;56083;48.774;8.942;2023-06-05T00:06:35;7.13;;;2.53;;
69030;SDS011;56083;48.774;8.942;2023-06-05T00:09:02;5.00;;;2.60;;
69030;SDS011;56083;48.774;8.942;2023-06-05T00:11:29;4.43;;;2.60;;
69030;SDS011;56083;48.774;8.942;2023-06-05T00:13:54;6.00;;;2.50;;
69030;SDS011;56083;48.774;8.942;2023-06-05T00:16:20;4.97;;;2.80;;
69030;SDS011;56083;48.774;8.942;2023-06-05T00:18:46;6.50;;;2.53;;
69030;SDS011;56083;48.774;8.942;2023-06-05T00:21:12;9.50;;;2.50;;
69030;SDS011;56083;48.774;8.942;2023-06-05T00:23:38;10.20;;;2.75;;
69030;SDS011;56083;48.774;8.942;2023-06-05T00:26:04;10.80;;;2.70;;
69030;SDS011;56083;48.774;8.942;2023-06-05T00:28:29;5.38;;;2.50;;
69030;SDS011;56083;48.774;8.942;2023-06-05T00:30:55;6.25;;;3.03;;
69030;SDS011;56083;48.774;8.942;2023-06-05T00:33:21;10.90;;;2.63;;
69030;SDS011;56083;48.774;8.942;2023-06-05T00:35:46;13.65;;;2.38;;
69030;SDS011;56083;48.774;8.942;2023-06-05T00:38:12;14.00;;;2.55;;
69030;SDS011;56083;48.774;8.942;2023-06-05T00:40:38;9.65;;;2.55;;
69030;SDS011;56083;48.774;8.942;2023-06-05T00:43:03;12.93;;;2.33;;
69030;SDS011;56083;48.774;8.942;2023-06-05T00:45:30;17.63;;;3.17;;
69030;SDS011;56083;48.774;8.942;2023-06-05T00:47:56;7.57;;;2.45;;
69030;SDS011;56083;48.774;8.942;2023-06-05T00:50:22;16.30;;;2.67;;
69030;SDS011;56083;48.774;8.942;2023-06-05T00:52:48;7.45;;;3.03;;
69030;SDS011;56083;48.774;8.942;2023-06-05T00:55:14;12.75;;;2.80;;
69030;SDS011;56083;48.774;8.942;2023-06-05T00:57:40;18.58;;;3.08;;
69030;SDS011;56083;48.774;8.942;2023-06-05T01:00:07;12.15;;;2.78;;
69030;SDS011;56083;48.774;8.942;2023-06-05T01:02:33;14.82;;;2.78;;
69030;SDS011;56083;48.774;8.942;2023-06-05T01:05:02;19.30;;;2.72;;
69030;SDS011;56083;48.774;8.942;2023-06-05T01:07:29;12.35;;;3.25;;
69030;SDS011;56083;48.774;8.942;2023-06-05T01:09:58;7.15;;;2.60;;
69030;SDS011;56083;48.774;8.942;2023-06-05T01:15:16;14.77;;;2.97;;
69030;SDS011;56083;48.774;8.942;2023-06-05T01:17:43;17.23;;;3.33;;
69030;SDS011;56083;48.774;8.942;2023-06-05T01:20:12;15.60;;;3.13;;
69030;SDS011;56083;48.774;8.942;2023-06-05T01:22:38;13.60;;;3.13;;
69030;SDS011;56083;48.774;8.942;2023-06-05T01:25:07;10.93;;;3.03;;
69030;SDS011;56083;48.774;8.942;2023-06-05T01:30:15;10.38;;;2.80;;
69030;SDS011;56083;48.774;8.942;2023-06-05T01:32:52;20.05;;;2.92;;
69030;SDS011;56083;48.774;8.942;2023-06-05T01:35:23;14.63;;;2.95;;
69030;SDS011;56083;48.774;8.942;2023-06-05T01:37:58;14.82;;;2.70;;
69030;SDS011;56083;48.774;8.942;2023-06-05T01:40:28;11.27;;;3.10;;
69030;SDS011;56083;48.774;8.942;2023-06-05T01:42:55;12.02;;;3.00;;
69030;SDS011;56083;48.774;8.942;2023-06-05T01:45:25;11.05;;;2.67;;
69030;SDS011;56083;48.774;8.942;2023-06-05T01:47:51;7.15;;;2.78;;
69030;SDS011;56083;48.774;8.942;2023-06-05T01:50:18;10.70;;;2.88;;
69030;SDS011;56083;48.774;8.942;2023-06-05T01:52:44;9.05;;;2.95;;
69030;SDS011;56083;48.774;8.942;2023-06-05T01:55:15;7.45;;;2.65;;
69030;SDS011;56083;48.774;8.942;2023-06-05T01:57:44;6.13;;;2.70;;
69030;SDS011;56083;48.774;8.942;2023-06-05T02:00:10;10.95;;;2.90;;
69030;SDS011;56083;48.774;8.942;2023-06-05T02:02:40;9.85;;;3.30;;
69030;SDS011;56083;48.774;8.942;2023-06-05T02:05:10;15.05;;;3.10;;
69030;SDS011;56083;48.774;8.942;2023-06-05T02:07:41;9.82;;;2.97;;
69030;SDS011;56083;48.774;8.942;2023-06-05T02:10:12;12.93;;;3.17;;
69030;SDS011;56083;48.774;8.942;2023-06-05T02:12:38;9.95;;;3.13;;
69030;SDS011;56083;48.774;8.942;2023-06-05T02:15:06;8.68;;;3.05;;
69030;SDS011;56083;48.774;8.942;2023-06-05T02:17:33;11.13;;;3.35;;
69030;SDS011;56083;48.774;8.942;2023-06-05T02:19:59;19.83;;;3.17;;
69030;SDS011;56083;48.774;8.942;2023-06-05T02:22:26;9.52;;;3.00;;
69030;SDS011;56083;48.774;8.942;2023-06-05T02:24:52;17.38;;;3.17;;
69030;SDS011;56083;48.774;8.942;2023-06-05T02:27:18;12.02;;;2.63;;
69030;SDS011;56083;48.774;8.942;2023-06-05T02:29:44;15.57;;;3.17;;
69030;SDS011;56083;48.774;8.942;2023-06-05T02:32:10;9.32;;;3.05;;
69030;SDS011;56083;48.774;8.942;2023-06-05T02:34:36;7.88;;;3.10;;
69030;SDS011;56083;48.774;8.942;2023-06-05T02:37:02;6.85;;;2.80;;
69030;SDS011;56083;48.774;8.942;2023-06-05T02:39:28;5.65;;;3.00;;
69030;SDS011;56083;48.774;8.942;2023-06-05T02:41:56;15.88;;;3.00;;
69030;SDS011;56083;48.774;8.942;2023-06-05T02:44:22;7.85;;;3.17;;
69030;SDS011;56083;48.774;8.942;2023-06-05T02:46:48;8.32;;;2.90;;
69030;SDS011;56083;48.774;8.942;2023-06-05T02:49:13;5.82;;;2.97;;
69030;SDS011;56083;48.774;8.942;2023-06-05T02:51:39;5.45;;;2.60;;
69030;SDS011;56083;48.774;8.942;2023-06-05T02:54:05;7.78;;;3.15;;
69030;SDS011;56083;48.774;8.942;2023-06-05T02:56:30;9.90;;;3.08;;
69030;SDS011;56083;48.774;8.942;2023-06-05T02:58:56;9.32;;;2.67;;
69030;SDS011;56083;48.774;8.942;2023-06-05T03:01:22;11.82;;;3.00;;
69030;SDS011;56083;48.774;8.942;2023-06-05T03:03:50;9.55;;;3.00;;
69030;SDS011;56083;48.774;8.942;2023-06-05T03:06:18;15.30;;;3.00;;
69030;SDS011;56083;48.774;8.942;2023-06-05T03:08:44;10.18;;;2.88;;
69030;SDS011;56083;48.774;8.942;2023-06-05T03:11:10;7.18;;;2.90;;
69030;SDS011;56083;48.774;8.942;2023-06-05T03:13:35;20.45;;;3.15;;
69030;SDS011;56083;48.774;8.942;2023-06-05T03:16:01;5.78;;;2.83;;
69030;SDS011;56083;48.774;8.942;2023-06-05T03:18:27;11.35;;;3.22;;
69030;SDS011;56083;48.774;8.942;2023-06-05T03:20:53;10.38;;;3.30;;
69030;SDS011;56083;48.774;8.942;2023-06-05T03:25:52;12.50;;;2.80;;
69030;SDS011;56083;48.774;8.942;2023-06-05T03:28:19;9.30;;;3.38;;
69030;SDS011;56083;48.774;8.942;2023-06-05T03:30:45;8.60;;;2.80;;
69030;SDS011;56083;48.774;8.942;2023-06-05T03:33:11;7.53;;;3.10;;
69030;SDS011;56083;48.774;8.942;2023-06-05T03:35:38;8.45;;;3.20;;
69030;SDS011;56083;48.774;8.942;2023-06-05T03:38:05;5.93;;;3.10;;
69030;SDS011;56083;48.774;8.942;2023-06-05T03:40:30;10.05;;;3.05;;
69030;SDS011;56083;48.774;8.942;2023-06-05T03:42:56;9.73;;;3.35;;
69030;SDS011;56083;48.774;8.942;2023-06-05T03:45:22;8.10;;;3.42;;
69030;SDS011;56083;48.774;8.942;2023-06-05T03:47:51;10.25;;;3.25;;
69030;SDS011;56083;48.774;8.942;2023-06-05T03:50:17;7.50;;;3.28;;
69030;SDS011;56083;48.774;8.942;2023-06-05T03:52:43;15.73;;;3.35;;
69030;SDS011;56083;48.774;8.942;2023-06-05T03:55:08;6.85;;;3.28;;
69030;SDS011;56083;48.774;8.942;2023-06-05T03:57:35;11.55;;;3.10;;
69030;SDS011;56083;48.774;8.942;2023-06-05T04:00:03;6.93;;;3.30;;
69030;SDS011;56083;48.774;8.942;2023-06-05T04:02:34;7.32;;;3.00;;
69030;SDS011;56083;48.774;8.942;2023-06-05T04:05:01;6.28;;;3.20;;
69030;SDS011;56083;48.774;8.942;2023-06-05T04:07:28;7.85;;;3.40;;
69030;SDS011;56083;48.774;8.942;2023-06-05T04:09:54;8.82;;;3.10;;
69030;SDS011;56083;48.774;8.942;2023-06-05T04:12:20;10.55;;;3.38;;
69030;SDS011;56083;48.774;8.942;2023-06-05T04:14:46;8.13;;;3.42;;
69030;SDS011;56083;48.774;8.942;2023-06-05T04:17:11;8.77;;;3.33;;
69030;SDS011;56083;48.774;8.942;2023-06-05T04:19:38;6.75;;;3.35;;
69030;SDS011;56083;48.774;8.942;2023-06-05T04:22:04;7.15;;;2.90;;
69030;SDS011;56083;48.774;8.942;2023-06-05T04:24:30;7.65;;;3.05;;
69030;SDS011;56083;48.774;8.942;2023-06-05T04:26:57;14.60;;;3.40;;
69030;SDS011;56083;48.774;8.942;2023-06-05T04:29:25;9.10;;;3.28;;
69030;SDS011;56083;48.774;8.942;2023-06-05T04:31:51;9.43;;;3.47;;
69030;SDS011;56083;48.774;8.942;2023-06-05T04:34:17;11.32;;;3.42;;
69030;SDS011;56083;48.774;8.942;2023-06-05T04:36:43;12.18;;;3.25;;
69030;SDS011;56083;48.774;8.942;2023-06-05T04:39:09;6.50;;;2.90;;
69030;SDS011;56083;48.774;8.942;2023-06-05T04:41:42;12.40;;;3.20;;
69030;SDS011;56083;48.774;8.942;2023-06-05T04:44:10;8.85;;;3.13;;
69030;SDS011;56083;48.774;8.942;2023-06-05T04:46:41;6.63;;;3.53;;
69030;SDS011;56083;48.774;8.942;2023-06-05T04:49:11;10.20;;;3.20;;
69030;SDS011;56083;48.774;8.942;2023-06-05T04:51:37;5.80;;;3.05;;
69030;SDS011;56083;48.774;8.942;2023-06-05T04:54:04;12.55;;;2.95;;
69030;SDS011;56083;48.774;8.942;2023-06-05T04:56:30;6.70;;;3.58;;
69030;SDS011;56083;48.774;8.942;2023-06-05T04:58:57;9.68;;;3.33;;
69030;SDS011;56083;48.774;8.942;2023-06-05T05:01:24;10.73;;;3.83;;
69030;SDS011;56083;48.774;8.942;2023-06-05T05:03:50;9.77;;;3.05;;
69030;SDS011;56083;48.774;8.942;2023-06-05T05:06:16;12.88;;;3.20;;
69030;SDS011;56083;48.774;8.942;2023-06-05T05:08:45;13.20;;;3.22;;
69030;SDS011;56083;48.774;8.942;2023-06-05T05:11:13;10.55;;;3.63;;
69030;SDS011;56083;48.774;8.942;2023-06-05T05:13:39;10.05;;;3.40;;
69030;SDS011;56083;48.774;8.942;2023-06-05T05:16:05;8.55;;;3.33;;
69030;SDS011;56083;48.774;8.942;2023-06-05T05:18:32;6.85;;;3.28;;
69030;SDS011;56083;48.774;8.942;2023-06-05T05:21:02;13.88;;;3.55;;
69030;SDS011;56083;48.774;8.942;2023-06-05T05:23:29;11.60;;;3.47;;
69030;SDS011;56083;48.774;8.942;2023-06-05T05:25:55;9.38;;;3.40;;
69030;SDS011;56083;48.774;8.942;2023-06-05T05:28:21;11.90;;;3.45;;
69030;SDS011;56083;48.774;8.942;2023-06-05T05:30:47;10.25;;;3.42;;
69030;SDS011;56083;48.774;8.942;2023-06-05T05:33:12;9.98;;;3.38;;
69030;SDS011;56083;48.774;8.942;2023-06-05T05:35:39;9.70;;;3.17;;
69030;SDS011;56083;48.774;8.942;2023-06-05T05:38:05;12.88;;;3.60;;
69030;SDS011;56083;48.774;8.942;2023-06-05T05:40:31;6.82;;;3.38;;
69030;SDS011;56083;48.774;8.942;2023-06-05T05:42:57;7.47;;;3.00;;
69030;SDS011;56083;48.774;8.942;2023-06-05T05:45:22;9.25;;;3.00;;
69030;SDS011;56083;48.774;8.942;2023-06-05T05:47:48;9.60;;;3.50;;
69030;SDS011;56083;48.774;8.942;2023-06-05T05:50:13;13.90;;;3.60;;
69030;SDS011;56083;48.774;8.942;2023-06-05T05:52:39;8.60;;;3.13;;
69030;SDS011;56083;48.774;8.942;2023-06-05T05:55:05;8.27;;;3.40;;
69030;SDS011;56083;48.774;8.942;2023-06-05T05:57:31;8.10;;;3.10;;
69030;SDS011;56083;48.774;8.942;2023-06-05T05:59:57;7.38;;;2.78;;
69030;SDS011;56083;48.774;8.942;2023-06-05T06:02:23;11.90;;;2.60;;
69030;SDS011;56083;48.774;8.942;2023-06-05T06:04:49;7.70;;;2.85;;
69030;SDS011;56083;48.774;8.942;2023-06-05T06:07:14;5.45;;;2.40;;
69030;SDS011;56083;48.774;8.942;2023-06-05T06:09:40;9.45;;;2.65;;
69030;SDS011;56083;48.774;8.942;2023-06-05T06:12:06;6.85;;;2.58;;
69030;SDS011;56083;48.774;8.942;2023-06-05T06:14:35;6.72;;;2.30;;
69030;SDS011;56083;48.774;8.942;2023-06-05T06:17:01;5.13;;;2.58;;
69030;SDS011;56083;48.774;8.942;2023-06-05T06:19:27;7.38;;;2.45;;
69030;SDS011;56083;48.774;8.942;2023-06-05T06:21:54;7.00;;;2.20;;
69030;SDS011;56083;48.774;8.942;2023-06-05T06:24:20;4.82;;;2.47;;
69030;SDS011;56083;48.774;8.942;2023-06-05T06:26:47;8.77;;;2.50;;
69030;SDS011;56083;48.774;8.942;2023-06-05T06:29:20;10.18;;;2.72;;
69030;SDS011;56083;48.774;8.942;2023-06-05T06:31:47;5.47;;;2.90;;
69030;SDS011;56083;48.774;8.942;2023-06-05T06:34:14;6.18;;;2.72;;
69030;SDS011;56083;48.774;8.942;2023-06-05T06:36:40;10.55;;;3.03;;
69030;SDS011;56083;48.774;8.942;2023-06-05T06:39:09;5.97;;;2.95;;
69030;SDS011;56083;48.774;8.942;2023-06-05T06:41:35;6.22;;;2.83;;
69030;SDS011;56083;48.774;8.942;2023-06-05T06:44:02;7.93;;;2.83;;
69030;SDS011;56083;48.774;8.942;2023-06-05T06:46:29;9.80;;;2.70;;
69030;SDS011;56083;48.774;8.942;2023-06-05T06:48:55;9.98;;;3.15;;
69030;SDS011;56083;48.774;8.942;2023-06-05T06:51:21;10.90;;;3.05;;
69030;SDS011;56083;48.774;8.942;2023-06-05T06:53:49;11.10;;;2.78;;
69030;SDS011;56083;48.774;8.942;2023-06-05T06:56:16;9.05;;;3.20;;
69030;SDS011;56083;48.774;8.942;2023-06-05T06:58:43;8.07;;;2.70;;
69030;SDS011;56083;48.774;8.942;2023-06-05T07:01:10;9.73;;;2.80;;
69030;SDS011;56083;48.774;8.942;2023-06-05T07:03:36;8.20;;;2.65;;
69030;SDS011;56083;48.774;8.942;2023-06-05T07:06:03;7.57;;;2.38;;
69030;SDS011;56083;48.774;8.942;2023-06-05T07:08:29;14.25;;;2.80;;
69030;SDS011;56083;48.774;8.942;2023-06-05T07:10:54;14.35;;;3.00;;
69030;SDS011;56083;48.774;8.942;2023-06-05T07:13:20;8.98;;;2.80;;
69030;SDS011;56083;48.774;8.942;2023-06-05T07:15:47;10.38;;;2.50;;
69030;SDS011;56083;48.774;8.942;2023-06-05T07:18:13;11.65;;;2.42;;
69030;SDS011;56083;48.774;8.942;2023-06-05T07:20:39;10.52;;;2.75;;
69030;SDS011;56083;48.774;8.942;2023-06-05T07:23:05;6.68;;;2.63;;
69030;SDS011;56083;48.774;8.942;2023-06-05T07:25:31;16.10;;;3.17;;
69030;SDS011;56083;48.774;8.942;2023-06-05T07:27:57;10.13;;;2.80;;
69030;SDS011;56083;48.774;8.942;2023-06-05T07:30:25;5.90;;;2.70;;
69030;SDS011;56083;48.774;8.942;2023-06-05T07:32:51;5.75;;;2.67;;
69030;SDS011;56083;48.774;8.942;2023-06-05T07:35:17;9.13;;;3.03;;
69030;SDS011;56083;48.774;8.942;2023-06-05T07:37:43;11.15;;;2.75;;
69030;SDS011;56083;48.774;8.942;2023-06-05T07:40:08;9.65;;;2.75;;
69030;SDS011;56083;48.774;8.942;2023-06-05T07:42:35;5.60;;;2.80;;
69030;SDS011;56083;48.774;8.942;2023-06-05T07:45:00;6.82;;;2.90;;
69030;SDS011;56083;48.774;8.942;2023-06-05T07:47:26;7.38;;;2.72;;
69030;SDS011;56083;48.774;8.942;2023-06-05T07:49:59;6.75;;;2.83;;
69030;SDS011;56083;48.774;8.942;2023-06-05T07:52:26;4.30;;;2.38;;
69030;SDS011;56083;48.774;8.942;2023-06-05T07:54:52;7.82;;;2.80;;
69030;SDS011;56083;48.774;8.942;2023-06-05T07:57:18;9.00;;;2.28;;
69030;SDS011;56083;48.774;8.942;2023-06-05T07:59:44;4.95;;;2.50;;
69030;SDS011;56083;48.774;8.942;2023-06-05T08:02:11;9.13;;;2.75;;
69030;SDS011;56083;48.774;8.942;2023-06-05T08:04:37;11.05;;;3.13;;
69030;SDS011;56083;48.774;8.942;2023-06-05T08:07:04;6.90;;;3.10;;
69030;SDS011;56083;48.774;8.942;2023-06-05T08:09:30;6.10;;;3.20;;
69030;SDS011;56083;48.774;8.942;2023-06-05T08:11:55;4.70;;;2.33;;
69030;SDS011;56083;48.774;8.942;2023-06-05T08:14:21;7.10;;;3.22;;
69030;SDS011;56083;48.774;8.942;2023-06-05T08:16:47;9.85;;;3.00;;
69030;SDS011;56083;48.774;8.942;2023-06-05T08:19:12;6.45;;;3.30;;
69030;SDS011;56083;48.774;8.942;2023-06-05T08:21:38;9.88;;;3.50;;
69030;SDS011;56083;48.774;8.942;2023-06-05T08:24:04;9.77;;;3.30;;
69030;SDS011;56083;48.774;8.942;2023-06-05T08:26:29;5.95;;;2.92;;
69030;SDS011;56083;48.774;8.942;2023-06-05T08:28:55;6.78;;;3.28;;
69030;SDS011;56083;48.774;8.942;2023-06-05T08:31:21;11.13;;;3.53;;
69030;SDS011;56083;48.774;8.942;2023-06-05T08:33:47;7.55;;;3.22;;
69030;SDS011;56083;48.774;8.942;2023-06-05T08:36:12;8.63;;;3.60;;
69030;SDS011;56083;48.774;8.942;2023-06-05T08:38:38;11.25;;;3.10;;
69030;SDS011;56083;48.774;8.942;2023-06-05T08:41:04;9.45;;;3.40;;
69030;SDS011;56083;48.774;8.942;2023-06-05T08:43:35;7.00;;;3.50;;
69030;SDS011;56083;48.774;8.942;2023-06-05T08:46:08;9.82;;;3.28;;
69030;SDS011;56083;48.774;8.942;2023-06-05T08:48:42;5.40;;;3.10;;
69030;SDS011;56083;48.774;8.942;2023-06-05T08:51:12;7.40;;;3.50;;
69030;SDS011;56083;48.774;8.942;2023-06-05T08:53:43;7.93;;;3.30;;
69030;SDS011;56083;48.774;8.942;2023-06-05T08:56:16;7.75;;;3.90;;
69030;SDS011;56083;48.774;8.942;2023-06-05T08:58:43;12.15;;;3.90;;
69030;SDS011;56083;48.774;8.942;2023-06-05T09:01:10;9.45;;;3.35;;
69030;SDS011;56083;48.774;8.942;2023-06-05T09:03:36;7.95;;;3.72;;
69030;SDS011;56083;48.774;8.942;2023-06-05T09:06:03;6.95;;;2.92;;
69030;SDS011;56083;48.774;8.942;2023-06-05T09:08:32;5.80;;;3.25;;
69030;SDS011;56083;48.774;8.942;2023-06-05T09:13:46;8.27;;;3.47;;
69030;SDS011;56083;48.774;8.942;2023-06-05T09:16:12;8.18;;;3.60;;
69030;SDS011;56083;48.774;8.942;2023-06-05T09:18:54;6.10;;;3.53;;
69030;SDS011;56083;48.774;8.942;2023-06-05T09:21:22;5.05;;;3.45;;
69030;SDS011;56083;48.774;8.942;2023-06-05T09:23:54;8.23;;;3.75;;
69030;SDS011;56083;48.774;8.942;2023-06-05T09:26:47;7.90;;;3.58;;
69030;SDS011;56083;48.774;8.942;2023-06-05T09:29:13;7.13;;;3.20;;
69030;SDS011;56083;48.774;8.942;2023-06-05T09:31:41;7.53;;;4.10;;
69030;SDS011;56083;48.774;8.942;2023-06-05T09:34:07;10.32;;;4.07;;
69030;SDS011;56083;48.774;8.942;2023-06-05T09:36:33;5.88;;;3.60;;
69030;SDS011;56083;48.774;8.942;2023-06-05T09:39:13;9.32;;;3.85;;
69030;SDS011;56083;48.774;8.942;2023-06-05T09:44:16;6.78;;;3.25;;
69030;SDS011;56083;48.774;8.942;2023-06-05T09:46:55;8.25;;;3.50;;
69030;SDS011;56083;48.774;8.942;2023-06-05T09:49:21;7.63;;;3.70;;
69030;SDS011;56083;48.774;8.942;2023-06-05T09:51:50;4.60;;;3.47;;
69030;SDS011;56083;48.774;8.942;2023-06-05T09:54:16;9.27;;;3.47;;
69030;SDS011;56083;48.774;8.942;2023-06-05T09:56:48;11.80;;;3.85;;
69030;SDS011;56083;48.774;8.942;2023-06-05T09:59:19;8.00;;;3.85;;
69030;SDS011;56083;48.774;8.942;2023-06-05T10:01:50;8.15;;;3.80;;
69030;SDS011;56083;48.774;8.942;2023-06-05T10:04:21;10.38;;;3.60;;
69030;SDS011;56083;48.774;8.942;2023-06-05T10:06:49;6.88;;;3.97;;
69030;SDS011;56083;48.774;8.942;2023-06-05T10:09:17;8.90;;;3.50;;
69030;SDS011;56083;48.774;8.942;2023-06-05T10:11:43;11.68;;;4.30;;
69030;SDS011;56083;48.774;8.942;2023-06-05T10:14:12;8.18;;;3.50;;
69030;SDS011;56083;48.774;8.942;2023-06-05T10:16:39;11.48;;;3.95;;
69030;SDS011;56083;48.774;8.942;2023-06-05T10:19:05;12.10;;;4.28;;
69030;SDS011;56083;48.774;8.942;2023-06-05T10:21:32;6.85;;;3.75;;
69030;SDS011;56083;48.774;8.942;2023-06-05T10:24:11;6.75;;;3.78;;
69030;SDS011;56083;48.774;8.942;2023-06-05T10:32:01;12.48;;;4.00;;
69030;SDS011;56083;48.774;8.942;2023-06-05T10:37:32;11.65;;;3.80;;
69030;SDS011;56083;48.774;8.942;2023-06-05T10:40:06;4.75;;;3.17;;
69030;SDS011;56083;48.774;8.942;2023-06-05T10:42:32;8.50;;;3.35;;
69030;SDS011;56083;48.774;8.942;2023-06-05T10:44:59;5.43;;;3.03;;
69030;SDS011;56083;48.774;8.942;2023-06-05T10:52:44;9.85;;;3.53;;
69030;SDS011;56083;48.774;8.942;2023-06-05T10:55:10;4.95;;;3.17;;
69030;SDS011;56083;48.774;8.942;2023-06-05T11:00:26;5.68;;;3.22;;
69030;SDS011;56083;48.774;8.942;2023-06-05T11:02:53;5.78;;;3.17;;
69030;SDS011;56083;48.774;8.942;2023-06-05T11:05:19;7.78;;;3.28;;
69030;SDS011;56083;48.774;8.942;2023-06-05T11:07:45;6.82;;;3.28;;
69030;SDS011;56083;48.774;8.942;2023-06-05T11:15:12;8.95;;;3.47;;
69030;SDS011;56083;48.774;8.942;2023-06-05T11:27:52;9.20;;;3.20;;
69030;SDS011;56083;48.774;8.942;2023-06-05T11:30:25;12.23;;;3.50;;
69030;SDS011;56083;48.774;8.942;2023-06-05T11:32:54;8.00;;;3.08;;
69030;SDS011;56083;48.774;8.942;2023-06-05T11:35:26;7.22;;;3.20;;
69030;SDS011;56083;48.774;8.942;2023-06-05T11:40:45;6.55;;;3.17;;
69030;SDS011;56083;48.774;8.942;2023-06-05T11:43:12;8.52;;;3.50;;
69030;SDS011;56083;48.774;8.942;2023-06-05T11:45:38;5.00;;;3.25;;
69030;SDS011;56083;48.774;8.942;2023-06-05T11:50:36;6.63;;;3.15;;
69030;SDS011;56083;48.774;8.942;2023-06-05T11:53:06;6.13;;;3.00;;
69030;SDS011;56083;48.774;8.942;2023-06-05T11:55:33;4.38;;;2.80;;
69030;SDS011;56083;48.774;8.942;2023-06-05T11:58:20;8.38;;;3.00;;
69030;SDS011;56083;48.774;8.942;2023-06-05T12:00:49;6.03;;;2.78;;
69030;SDS011;56083;48.774;8.942;2023-06-05T12:03:16;9.40;;;2.70;;
69030;SDS011;56083;48.774;8.942;2023-06-05T12:05:48;11.77;;;3.10;;
69030;SDS011;56083;48.774;8.942;2023-06-05T12:08:24;6.63;;;3.00;;
69030;SDS011;56083;48.774;8.942;2023-06-05T12:10:54;6.65;;;2.78;;
69030;SDS011;56083;48.774;8.942;2023-06-05T12:13:21;8.32;;;3.03;;
69030;SDS011;56083;48.774;8.942;2023-06-05T12:15:59;5.88;;;2.70;;
69030;SDS011;56083;48.774;8.942;2023-06-05T12:18:32;8.38;;;2.53;;
69030;SDS011;56083;48.774;8.942;2023-06-05T12:20:58;9.02;;;2.85;;
69030;SDS011;56083;48.774;8.942;2023-06-05T12:23:30;9.57;;;2.90;;
69030;SDS011;56083;48.774;8.942;2023-06-05T12:25:59;11.15;;;2.80;;
69030;SDS011;56083;48.774;8.942;2023-06-05T12:28:29;7.63;;;2.63;;
69030;SDS011;56083;48.774;8.942;2023-06-05T12:30:55;6.35;;;2.88;;
69030;SDS011;56083;48.774;8.942;2023-06-05T12:33:22;8.88;;;2.85;;
69030;SDS011;56083;48.774;8.942;2023-06-05T12:36:04;9.48;;;3.00;;
69030;SDS011;56083;48.774;8.942;2023-06-05T12:38:36;9.85;;;3.22;;
69030;SDS011;56083;48.774;8.942;2023-06-05T12:41:03;7.90;;;2.90;;
69030;SDS011;56083;48.774;8.942;2023-06-05T12:43:31;9.05;;;2.95;;
69030;SDS011;56083;48.774;8.942;2023-06-05T12:45:58;5.30;;;2.97;;
69030;SDS011;56083;48.774;8.942;2023-06-05T12:48:23;7.45;;;2.80;;
69030;SDS011;56083;48.774;8.942;2023-06-05T12:50:50;5.60;;;2.70;;
69030;SDS011;56083;48.774;8.942;2023-06-05T12:53:16;8.05;;;2.90;;
69030;SDS011;56083;48.774;8.942;2023-06-05T12:55:43;5.72;;;2.78;;
69030;SDS011;56083;48.774;8.942;2023-06-05T12:58:09;5.75;;;2.85;;
69030;SDS011;56083;48.774;8.942;2023-06-05T13:00:36;6.82;;;3.08;;
69030;SDS011;56083;48.774;8.942;2023-06-05T13:03:02;9.10;;;3.08;;
69030;SDS011;56083;48.774;8.942;2023-06-05T13:05:29;9.48;;;2.92;;
69030;SDS011;56083;48.774;8.942;2023-06-05T13:07:58;6.60;;;3.20;;
69030;SDS011;56083;48.774;8.942;2023-06-05T13:10:24;6.72;;;2.90;;
69030;SDS011;56083;48.774;8.942;2023-06-05T13:12:49;4.57;;;2.60;;
69030;SDS011;56083;48.774;8.942;2023-06-05T13:15:15;9.65;;;2.95;;
69030;SDS011;56083;48.774;8.942;2023-06-05T13:17:41;4.38;;;3.00;;
69030;SDS011;56083;48.774;8.942;2023-06-05T13:20:07;8.48;;;3.00;;
69030;SDS011;56083;48.774;8.942;2023-06-05T13:25:08;8.18;;;3.03;;
69030;SDS011;56083;48.774;8.942;2023-06-05T13:27:34;9.43;;;3.15;;
69030;SDS011;56083;48.774;8.942;2023-06-05T13:30:00;8.88;;;3.00;;
69030;SDS011;56083;48.774;8.942;2023-06-05T13:32:28;7.38;;;2.90;;
69030;SDS011;56083;48.774;8.942;2023-06-05T13:34:55;9.43;;;2.88;;
69030;SDS011;56083;48.774;8.942;2023-06-05T13:37:22;7.18;;;3.00;;
69030;SDS011;56083;48.774;8.942;2023-06-05T13:39:48;10.10;;;2.90;;
69030;SDS011;56083;48.774;8.942;2023-06-05T13:42:13;8.20;;;3.10;;
69030;SDS011;56083;48.774;8.942;2023-06-05T13:44:39;10.77;;;3.28;;
69030;SDS011;56083;48.774;8.942;2023-06-05T13:47:05;10.27;;;3.15;;
69030;SDS011;56083;48.774;8.942;2023-06-05T13:49:33;8.52;;;2.90;;
69030;SDS011;56083;48.774;8.942;2023-06-05T13:51:59;7.78;;;3.53;;
69030;SDS011;56083;48.774;8.942;2023-06-05T13:54:25;10.48;;;2.90;;
69030;SDS011;56083;48.774;8.942;2023-06-05T13:56:50;6.85;;;2.97;;
69030;SDS011;56083;48.774;8.942;2023-06-05T13:59:19;8.27;;;3.10;;
69030;SDS011;56083;48.774;8.942;2023-06-05T14:01:44;4.63;;;2.85;;
69030;SDS011;56083;48.774;8.942;2023-06-05T14:04:10;5.32;;;3.45;;
69030;SDS011;56083;48.774;8.942;2023-06-05T14:06:36;8.25;;;3.38;;
69030;SDS011;56083;48.774;8.942;2023-06-05T14:09:04;9.50;;;3.58;;
69030;SDS011;56083;48.774;8.942;2023-06-05T14:11:30;6.30;;;3.33;;
69030;SDS011;56083;48.774;8.942;2023-06-05T14:13:56;11.20;;;3.20;;
69030;SDS011;56083;48.774;8.942;2023-06-05T14:16:22;7.70;;;3.17;;
69030;SDS011;56083;48.774;8.942;2023-06-05T14:18:49;7.00;;;3.30;;
69030;SDS011;56083;48.774;8.942;2023-06-05T14:21:14;7.10;;;3.40;;
69030;SDS011;56083;48.774;8.942;2023-06-05T14:23:40;9.00;;;3.53;;
69030;SDS011;56083;48.774;8.942;2023-06-05T14:26:07;5.63;;;3.22;;
69030;SDS011;56083;48.774;8.942;2023-06-05T14:28:33;6.55;;;3.22;;
69030;SDS011;56083;48.774;8.942;2023-06-05T14:30:58;9.40;;;3.53;;
69030;SDS011;56083;48.774;8.942;2023-06-05T14:33:24;7.43;;;3.33;;
69030;SDS011;56083;48.774;8.942;2023-06-05T14:35:50;9.25;;;3.28;;
69030;SDS011;56083;48.774;8.942;2023-06-05T14:38:16;7.00;;;3.10;;
69030;SDS011;56083;48.774;8.942;2023-06-05T14:40:41;7.03;;;3.40;;
69030;SDS011;56083;48.774;8.942;2023-06-05T14:43:07;7.03;;;3.60;;
69030;SDS011;56083;48.774;8.942;2023-06-05T14:45:33;4.85;;;3.00;;
69030;SDS011;56083;48.774;8.942;2023-06-05T14:48:01;11.63;;;3.58;;
69030;SDS011;56083;48.774;8.942;2023-06-05T14:50:27;8.20;;;3.45;;
69030;SDS011;56083;48.774;8.942;2023-06-05T14:52:54;11.48;;;3.28;;
69030;SDS011;56083;48.774;8.942;2023-06-05T14:55:19;6.00;;;3.30;;
69030;SDS011;56083;48.774;8.942;2023-06-05T14:57:45;8.13;;;3.10;;
69030;SDS011;56083;48.774;8.942;2023-06-05T15:00:11;6.72;;;3.28;;
69030;SDS011;56083;48.774;8.942;2023-06-05T15:02:36;7.07;;;3.03;;
69030;SDS011;56083;48.774;8.942;2023-06-05T15:05:02;9.82;;;3.30;;
69030;SDS011;56083;48.774;8.942;2023-06-05T15:07:38;5.63;;;2.90;;
69030;SDS011;56083;48.774;8.942;2023-06-05T15:10:05;12.25;;;3.10;;
69030;SDS011;56083;48.774;8.942;2023-06-05T15:12:33;10.90;;;3.03;;
69030;SDS011;56083;48.774;8.942;2023-06-05T15:14:59;6.93;;;3.38;;
69030;SDS011;56083;48.774;8.942;2023-06-05T15:17:24;5.88;;;2.95;;
69030;SDS011;56083;48.774;8.942;2023-06-05T15:19:50;5.47;;;3.10;;
69030;SDS011;56083;48.774;8.942;2023-06-05T15:22:15;5.90;;;2.90;;
69030;SDS011;56083;48.774;8.942;2023-06-05T15:24:41;8.45;;;3.03;;
69030;SDS011;56083;48.774;8.942;2023-06-05T15:27:07;7.75;;;3.08;;
69030;SDS011;56083;48.774;8.942;2023-06-05T15:29:33;3.67;;;2.53;;
69030;SDS011;56083;48.774;8.942;2023-06-05T15:31:59;11.45;;;3.05;;
69030;SDS011;56083;48.774;8.942;2023-06-05T15:34:25;7.75;;;3.30;;
69030;SDS011;56083;48.774;8.942;2023-06-05T15:36:50;13.13;;;3.20;;